Airways and Terminal Forecast

Significant Meteorological Information

WSPH31 RPLL 242135 
RPHI SIGMET B09 VALID 242145/250145 RPLL-
RPHI MANILA FIR EMBD TS OBS WI N1257 E11729 - N1016 E11416 - N1030 E11400 - N1430 E11400 - N1438 E11702 - N1257 E11729 TOP FL520 MOV WSW 10KT NC=

Terminal Aerodrome Forecast

TAF RPLL

242300Z 2500/2606 11006KT 9999 FEW025 BKN100 TX30/2506Z TN26/2521Z TEMPO  2500/2506 07010KT -SHRA SCT023 OVC100 TEMPO 2506/2512 13012KT 7000 -TSRA FEW022CB SCT023 OVC090=

TAF RPVM

242300Z 2500/2606 04003KT 9999 FEW020 BKN300 TEMPO  2500/2506 15006KT FEW020 BKN100 TEMPO 2506/2512 01006KT FEW018CB BKN250=

TAF RPLC

242300Z 2500/2606 36006KT 9999 FEW020 BKN300 TX32/2506Z TN24/2522Z TEMPO  2500/2506 03008KT SCT020 BKN300=

TAF RPLB

242300Z 2500/2524 07008KT 9999 FEW020 SCT080 BKN300 TX31/2506Z TN24/2521Z TEMPO  2500/2506 04012KT 9000 -SHRA SCT018 BKN080=

TAF RPLI

242300Z 2500/2524 05006KT 9999 FEW018 SCT290 TEMPO  2500/2506 35010KT FEW017CB SCT018=

TAF RPVP

242300Z 2500/2524 17006KT 9999 FEW019 SCT080 TEMPO  2500/2506 19010KT FEW017CB SCT019 BKN080=

TAF RPVD

242300Z 2500/2524 09006KT 9999 FEW015 SCT070 BKN220 TEMPO  2500/2506 11010KT -TSRA FEW014CB SCT015 BKN070=

TAF RPMR

242300Z 2500/2524 16006KT 9999 FEW018 SCT080 TEMPO  2500/2506 13010KT FEW017CB BKN080=

TAF RPMD

242300Z 2500/2524 18006KT 9999 FEW016 SCT090 BKN260 TEMPO  2500/2506 15010KT FEW015CB BKN090 OVC260=

TAF RPMZ

242300Z 2500/2524 25005KT 9999 FEW017 SCT090 TEMPO  2500/2506 22010KT FEW016CB FEW017 BKN090=

TAF RPVK

242300Z 2500/2524 05008KT 9999 FEW016 STC070 BKN240 TEMPO 2500/2506 18012KT 7000 -SHRA SCT016 BKN070 OVC240=

 

RPLL FORECAST TAKE-OFF CONDITION

TIME

(UTC)

WIND

(dddffKT)

TEMP

(°C)

QNH

(hPa)

TIME

(UTC)

WIND

(dddffKT)

TEMP

(°C)

QNH

(hPa)

0000

VRB03KT

27.5

1011.0

0400

11008KT

29.0

1010.0

0100

VRB03KT

28.5

1011.0

0500

11010KT

29.5

1010.0

0200

07006KT

29.0

1011.0

0600

13012KT

30.0

1009.0

0300

07006KT

29.0

1011.0

0700

13012KT

29.0

1008.0

 

ISSUED AT NAIA AMSS-WD/PAGASA-DOST FOR 2300UTC 24 OCTOBER 2021

PREPARED BY:   SAIN

CHECKED BY:      GSS